sensor_id;sensor_type;location;lat;lon;timestamp;temperature;humidity
18317;DHT22;9284;52.298;21.164;2024-03-02T00:01:10;7.20;1.00
18317;DHT22;9284;52.298;21.164;2024-03-02T00:03:45;7.20;1.00
18317;DHT22;9284;52.298;21.164;2024-03-02T00:06:19;7.10;1.00
18317;DHT22;9284;52.298;21.164;2024-03-02T00:08:48;7.10;99.90
18317;DHT22;9284;52.298;21.164;2024-03-02T00:11:17;7.10;99.90
18317;DHT22;9284;52.298;21.164;2024-03-02T00:13:46;7.10;1.00
18317;DHT22;9284;52.298;21.164;2024-03-02T00:16:15;7.00;1.00
18317;DHT22;9284;52.298;21.164;2024-03-02T00:18:45;7.00;99.90
18317;DHT22;9284;52.298;21.164;2024-03-02T00:21:17;7.00;1.00
18317;DHT22;9284;52.298;21.164;2024-03-02T00:23:48;6.90;99.90
18317;DHT22;9284;52.298;21.164;2024-03-02T00:26:19;6.90;1.00
18317;DHT22;9284;52.298;21.164;2024-03-02T00:28:47;6.90;1.00
18317;DHT22;9284;52.298;21.164;2024-03-02T00:31:20;6.80;1.00
18317;DHT22;9284;52.298;21.164;2024-03-02T00:33:48;6.80;1.00
18317;DHT22;9284;52.298;21.164;2024-03-02T00:36:24;6.80;3.60
18317;DHT22;9284;52.298;21.164;2024-03-02T00:38:54;6.70;38.90
18317;DHT22;9284;52.298;21.164;2024-03-02T00:41:25;6.70;99.90
18317;DHT22;9284;52.298;21.164;2024-03-02T00:43:58;6.70;99.90
18317;DHT22;9284;52.298;21.164;2024-03-02T00:46:30;6.70;99.90
18317;DHT22;9284;52.298;21.164;2024-03-02T00:49:00;6.60;1.00
18317;DHT22;9284;52.298;21.164;2024-03-02T00:51:30;6.60;1.00
18317;DHT22;9284;52.298;21.164;2024-03-02T00:54:00;6.60;1.00
18317;DHT22;9284;52.298;21.164;2024-03-02T00:56:32;6.60;1.00
18317;DHT22;9284;52.298;21.164;2024-03-02T00:59:02;6.60;1.00
18317;DHT22;9284;52.298;21.164;2024-03-02T01:01:32;6.50;1.00
18317;DHT22;9284;52.298;21.164;2024-03-02T01:04:00;6.50;32.60
18317;DHT22;9284;52.298;21.164;2024-03-02T01:06:29;6.50;90.60
18317;DHT22;9284;52.298;21.164;2024-03-02T01:08:58;6.50;99.90
18317;DHT22;9284;52.298;21.164;2024-03-02T01:11:26;6.40;99.90
18317;DHT22;9284;52.298;21.164;2024-03-02T01:13:55;6.40;99.90
18317;DHT22;9284;52.298;21.164;2024-03-02T01:16:23;6.40;99.90
18317;DHT22;9284;52.298;21.164;2024-03-02T01:18:53;6.40;1.00
18317;DHT22;9284;52.298;21.164;2024-03-02T01:21:22;6.40;99.90
18317;DHT22;9284;52.298;21.164;2024-03-02T01:23:50;6.40;99.90
18317;DHT22;9284;52.298;21.164;2024-03-02T01:26:18;6.40;1.00
18317;DHT22;9284;52.298;21.164;2024-03-02T01:28:47;6.40;1.00
18317;DHT22;9284;52.298;21.164;2024-03-02T01:31:16;6.40;1.00
18317;DHT22;9284;52.298;21.164;2024-03-02T01:33:44;6.40;1.00
18317;DHT22;9284;52.298;21.164;2024-03-02T01:36:14;6.40;1.00
18317;DHT22;9284;52.298;21.164;2024-03-02T01:38:43;6.40;1.00
18317;DHT22;9284;52.298;21.164;2024-03-02T01:41:11;6.30;1.00
18317;DHT22;9284;52.298;21.164;2024-03-02T01:43:40;6.30;1.00
18317;DHT22;9284;52.298;21.164;2024-03-02T01:46:11;6.30;1.00
18317;DHT22;9284;52.298;21.164;2024-03-02T01:48:42;6.20;1.00
18317;DHT22;9284;52.298;21.164;2024-03-02T01:51:11;6.20;1.00
18317;DHT22;9284;52.298;21.164;2024-03-02T01:53:41;6.20;99.90
18317;DHT22;9284;52.298;21.164;2024-03-02T01:56:10;6.20;99.90
18317;DHT22;9284;52.298;21.164;2024-03-02T01:58:38;6.20;99.90
18317;DHT22;9284;52.298;21.164;2024-03-02T02:01:06;6.10;99.90
18317;DHT22;9284;52.298;21.164;2024-03-02T02:03:37;6.10;99.90
18317;DHT22;9284;52.298;21.164;2024-03-02T02:06:06;6.10;1.00
18317;DHT22;9284;52.298;21.164;2024-03-02T02:08:34;6.10;1.00
18317;DHT22;9284;52.298;21.164;2024-03-02T02:11:06;6.10;1.00
18317;DHT22;9284;52.298;21.164;2024-03-02T02:13:35;6.00;1.00
18317;DHT22;9284;52.298;21.164;2024-03-02T02:16:07;6.00;1.00
18317;DHT22;9284;52.298;21.164;2024-03-02T02:18:35;6.00;1.00
18317;DHT22;9284;52.298;21.164;2024-03-02T02:21:04;6.00;1.00
18317;DHT22;9284;52.298;21.164;2024-03-02T02:23:34;6.00;64.30
18317;DHT22;9284;52.298;21.164;2024-03-02T02:26:02;5.90;36.80
18317;DHT22;9284;52.298;21.164;2024-03-02T02:28:31;5.90;99.90
18317;DHT22;9284;52.298;21.164;2024-03-02T02:30:59;5.90;99.90
18317;DHT22;9284;52.298;21.164;2024-03-02T02:33:28;5.90;1.00
18317;DHT22;9284;52.298;21.164;2024-03-02T02:35:57;5.90;1.00
18317;DHT22;9284;52.298;21.164;2024-03-02T02:38:25;5.80;1.00
18317;DHT22;9284;52.298;21.164;2024-03-02T02:40:55;5.90;1.00
18317;DHT22;9284;52.298;21.164;2024-03-02T02:43:23;5.80;1.00
18317;DHT22;9284;52.298;21.164;2024-03-02T02:45:51;5.80;5.60
18317;DHT22;9284;52.298;21.164;2024-03-02T02:48:20;5.90;50.20
18317;DHT22;9284;52.298;21.164;2024-03-02T02:50:48;5.80;1.00
18317;DHT22;9284;52.298;21.164;2024-03-02T02:53:17;5.80;19.70
18317;DHT22;9284;52.298;21.164;2024-03-02T02:55:45;5.80;34.70
18317;DHT22;9284;52.298;21.164;2024-03-02T02:58:15;5.70;97.90
18317;DHT22;9284;52.298;21.164;2024-03-02T03:00:43;5.70;98.50
18317;DHT22;9284;52.298;21.164;2024-03-02T03:03:12;5.70;99.90
18317;DHT22;9284;52.298;21.164;2024-03-02T03:05:40;5.60;99.90
18317;DHT22;9284;52.298;21.164;2024-03-02T03:08:08;5.60;99.90
18317;DHT22;9284;52.298;21.164;2024-03-02T03:10:37;5.60;1.00
18317;DHT22;9284;52.298;21.164;2024-03-02T03:13:05;5.50;1.00
18317;DHT22;9284;52.298;21.164;2024-03-02T03:15:37;5.50;1.00
18317;DHT22;9284;52.298;21.164;2024-03-02T03:18:06;5.50;1.00
18317;DHT22;9284;52.298;21.164;2024-03-02T03:20:34;5.50;1.00
18317;DHT22;9284;52.298;21.164;2024-03-02T03:23:03;5.50;1.00
18317;DHT22;9284;52.298;21.164;2024-03-02T03:25:32;5.50;33.80
18317;DHT22;9284;52.298;21.164;2024-03-02T03:28:00;5.40;1.00
18317;DHT22;9284;52.298;21.164;2024-03-02T03:30:30;5.40;99.90
18317;DHT22;9284;52.298;21.164;2024-03-02T03:33:00;5.50;99.90
18317;DHT22;9284;52.298;21.164;2024-03-02T03:35:28;5.30;99.90
18317;DHT22;9284;52.298;21.164;2024-03-02T03:37:57;5.40;99.90
18317;DHT22;9284;52.298;21.164;2024-03-02T03:40:25;5.40;99.90
18317;DHT22;9284;52.298;21.164;2024-03-02T03:42:54;5.30;99.90
18317;DHT22;9284;52.298;21.164;2024-03-02T03:45:24;5.30;99.90
18317;DHT22;9284;52.298;21.164;2024-03-02T03:47:53;5.30;99.90
18317;DHT22;9284;52.298;21.164;2024-03-02T03:50:23;5.30;99.90
18317;DHT22;9284;52.298;21.164;2024-03-02T03:52:51;5.30;1.00
18317;DHT22;9284;52.298;21.164;2024-03-02T03:55:19;5.30;1.00
18317;DHT22;9284;52.298;21.164;2024-03-02T03:57:48;5.30;1.00
18317;DHT22;9284;52.298;21.164;2024-03-02T04:00:17;5.30;1.00
18317;DHT22;9284;52.298;21.164;2024-03-02T04:02:45;5.30;1.00
18317;DHT22;9284;52.298;21.164;2024-03-02T04:05:13;5.40;1.00
18317;DHT22;9284;52.298;21.164;2024-03-02T04:07:43;5.30;1.00
18317;DHT22;9284;52.298;21.164;2024-03-02T04:10:12;5.30;1.00
18317;DHT22;9284;52.298;21.164;2024-03-02T04:12:40;5.30;1.00
18317;DHT22;9284;52.298;21.164;2024-03-02T04:15:09;5.30;1.00
18317;DHT22;9284;52.298;21.164;2024-03-02T04:17:37;5.20;1.00
18317;DHT22;9284;52.298;21.164;2024-03-02T04:20:06;5.20;1.00
18317;DHT22;9284;52.298;21.164;2024-03-02T04:22:35;5.20;1.00
18317;DHT22;9284;52.298;21.164;2024-03-02T04:25:05;5.20;1.00
18317;DHT22;9284;52.298;21.164;2024-03-02T04:27:34;5.10;1.00
18317;DHT22;9284;52.298;21.164;2024-03-02T04:30:04;5.20;1.00
18317;DHT22;9284;52.298;21.164;2024-03-02T04:32:33;5.10;1.00
18317;DHT22;9284;52.298;21.164;2024-03-02T04:35:04;5.20;1.00
18317;DHT22;9284;52.298;21.164;2024-03-02T04:37:35;5.20;1.00
18317;DHT22;9284;52.298;21.164;2024-03-02T04:40:05;5.20;1.00
18317;DHT22;9284;52.298;21.164;2024-03-02T04:42:36;5.20;1.00
18317;DHT22;9284;52.298;21.164;2024-03-02T04:45:06;5.20;1.00
18317;DHT22;9284;52.298;21.164;2024-03-02T04:47:34;5.20;1.00
18317;DHT22;9284;52.298;21.164;2024-03-02T04:50:03;5.20;1.00
18317;DHT22;9284;52.298;21.164;2024-03-02T04:52:32;5.20;1.00
18317;DHT22;9284;52.298;21.164;2024-03-02T04:55:00;5.20;1.00
18317;DHT22;9284;52.298;21.164;2024-03-02T04:58:13;5.20;1.00
18317;DHT22;9284;52.298;21.164;2024-03-02T05:00:42;5.10;1.00
18317;DHT22;9284;52.298;21.164;2024-03-02T05:03:13;5.10;1.00
18317;DHT22;9284;52.298;21.164;2024-03-02T05:05:42;5.10;1.00
18317;DHT22;9284;52.298;21.164;2024-03-02T05:08:10;5.10;1.00
18317;DHT22;9284;52.298;21.164;2024-03-02T05:10:39;5.20;1.00
18317;DHT22;9284;52.298;21.164;2024-03-02T05:13:07;5.10;1.00
18317;DHT22;9284;52.298;21.164;2024-03-02T05:15:36;5.10;1.00
18317;DHT22;9284;52.298;21.164;2024-03-02T05:18:05;5.20;1.00
18317;DHT22;9284;52.298;21.164;2024-03-02T05:20:33;5.20;1.00
18317;DHT22;9284;52.298;21.164;2024-03-02T05:23:01;5.20;1.00
18317;DHT22;9284;52.298;21.164;2024-03-02T05:25:30;5.20;1.00
18317;DHT22;9284;52.298;21.164;2024-03-02T05:27:59;5.20;1.00
18317;DHT22;9284;52.298;21.164;2024-03-02T05:30:27;5.30;1.00
18317;DHT22;9284;52.298;21.164;2024-03-02T05:32:57;5.30;1.00
18317;DHT22;9284;52.298;21.164;2024-03-02T05:35:25;5.30;1.00
18317;DHT22;9284;52.298;21.164;2024-03-02T05:37:53;5.20;1.00
18317;DHT22;9284;52.298;21.164;2024-03-02T05:40:22;5.30;1.00
18317;DHT22;9284;52.298;21.164;2024-03-02T05:42:50;5.40;1.00
18317;DHT22;9284;52.298;21.164;2024-03-02T05:45:19;5.40;1.00
18317;DHT22;9284;52.298;21.164;2024-03-02T05:47:47;5.40;1.00
18317;DHT22;9284;52.298;21.164;2024-03-02T05:50:17;5.40;1.00
18317;DHT22;9284;52.298;21.164;2024-03-02T05:52:47;5.40;1.00
18317;DHT22;9284;52.298;21.164;2024-03-02T05:55:15;5.50;1.00
18317;DHT22;9284;52.298;21.164;2024-03-02T05:57:43;5.50;1.00
18317;DHT22;9284;52.298;21.164;2024-03-02T06:00:26;5.50;1.00
18317;DHT22;9284;52.298;21.164;2024-03-02T06:02:54;5.50;1.00
18317;DHT22;9284;52.298;21.164;2024-03-02T06:05:24;5.60;1.00
18317;DHT22;9284;52.298;21.164;2024-03-02T06:07:53;5.50;99.90
18317;DHT22;9284;52.298;21.164;2024-03-02T06:10:21;5.50;99.90
18317;DHT22;9284;52.298;21.164;2024-03-02T06:12:49;5.60;99.90
18317;DHT22;9284;52.298;21.164;2024-03-02T06:15:18;5.60;99.90
18317;DHT22;9284;52.298;21.164;2024-03-02T06:17:47;5.60;99.90
18317;DHT22;9284;52.298;21.164;2024-03-02T06:20:15;5.60;99.90
18317;DHT22;9284;52.298;21.164;2024-03-02T06:22:45;5.70;99.90
18317;DHT22;9284;52.298;21.164;2024-03-02T06:25:13;5.60;99.90
18317;DHT22;9284;52.298;21.164;2024-03-02T06:27:42;5.70;99.90
18317;DHT22;9284;52.298;21.164;2024-03-02T06:30:11;5.70;99.90
18317;DHT22;9284;52.298;21.164;2024-03-02T06:32:40;5.80;31.50
18317;DHT22;9284;52.298;21.164;2024-03-02T06:35:08;5.70;1.00
18317;DHT22;9284;52.298;21.164;2024-03-02T06:37:38;5.80;1.00
18317;DHT22;9284;52.298;21.164;2024-03-02T06:40:09;5.90;1.00
18317;DHT22;9284;52.298;21.164;2024-03-02T06:42:38;5.90;1.00
18317;DHT22;9284;52.298;21.164;2024-03-02T06:45:06;6.00;1.00
18317;DHT22;9284;52.298;21.164;2024-03-02T06:47:35;6.00;99.90
18317;DHT22;9284;52.298;21.164;2024-03-02T06:50:04;6.10;99.90
18317;DHT22;9284;52.298;21.164;2024-03-02T06:52:34;6.10;99.90
18317;DHT22;9284;52.298;21.164;2024-03-02T06:55:02;6.20;1.00
18317;DHT22;9284;52.298;21.164;2024-03-02T06:57:33;6.20;1.00
18317;DHT22;9284;52.298;21.164;2024-03-02T07:00:02;6.30;99.90
18317;DHT22;9284;52.298;21.164;2024-03-02T07:02:32;6.30;99.90
18317;DHT22;9284;52.298;21.164;2024-03-02T07:05:01;6.20;99.90
18317;DHT22;9284;52.298;21.164;2024-03-02T07:07:30;6.40;60.90
18317;DHT22;9284;52.298;21.164;2024-03-02T07:09:59;6.40;1.00
18317;DHT22;9284;52.298;21.164;2024-03-02T07:12:27;6.50;1.00
18317;DHT22;9284;52.298;21.164;2024-03-02T07:14:57;6.50;99.90
18317;DHT22;9284;52.298;21.164;2024-03-02T07:17:48;6.50;99.90
18317;DHT22;9284;52.298;21.164;2024-03-02T07:20:17;6.50;99.90
18317;DHT22;9284;52.298;21.164;2024-03-02T07:22:45;6.50;1.00
18317;DHT22;9284;52.298;21.164;2024-03-02T07:25:13;6.60;1.00
18317;DHT22;9284;52.298;21.164;2024-03-02T07:27:45;6.60;99.90
18317;DHT22;9284;52.298;21.164;2024-03-02T07:30:15;6.60;99.90
18317;DHT22;9284;52.298;21.164;2024-03-02T07:32:44;6.70;99.90
18317;DHT22;9284;52.298;21.164;2024-03-02T07:35:13;6.70;7.60
18317;DHT22;9284;52.298;21.164;2024-03-02T07:37:42;6.80;1.00
18317;DHT22;9284;52.298;21.164;2024-03-02T07:40:11;6.90;1.00
18317;DHT22;9284;52.298;21.164;2024-03-02T07:42:40;7.00;1.00
18317;DHT22;9284;52.298;21.164;2024-03-02T07:45:08;7.00;99.90
18317;DHT22;9284;52.298;21.164;2024-03-02T07:47:38;7.10;63.60
18317;DHT22;9284;52.298;21.164;2024-03-02T07:50:07;7.10;61.70
18317;DHT22;9284;52.298;21.164;2024-03-02T07:52:36;7.20;96.40
18317;DHT22;9284;52.298;21.164;2024-03-02T07:55:04;7.30;1.00
18317;DHT22;9284;52.298;21.164;2024-03-02T07:57:33;7.30;1.00
18317;DHT22;9284;52.298;21.164;2024-03-02T08:00:01;7.30;99.90
18317;DHT22;9284;52.298;21.164;2024-03-02T08:02:40;7.40;99.90
18317;DHT22;9284;52.298;21.164;2024-03-02T08:05:09;7.40;99.90
18317;DHT22;9284;52.298;21.164;2024-03-02T08:07:38;7.40;1.00
18317;DHT22;9284;52.298;21.164;2024-03-02T08:10:07;7.50;8.60
18317;DHT22;9284;52.298;21.164;2024-03-02T08:12:35;7.60;1.00
18317;DHT22;9284;52.298;21.164;2024-03-02T08:15:05;7.60;1.00
18317;DHT22;9284;52.298;21.164;2024-03-02T08:17:33;7.70;1.00
18317;DHT22;9284;52.298;21.164;2024-03-02T08:20:07;7.80;99.90
18317;DHT22;9284;52.298;21.164;2024-03-02T08:22:36;7.80;99.90
18317;DHT22;9284;52.298;21.164;2024-03-02T08:25:05;7.80;99.90
18317;DHT22;9284;52.298;21.164;2024-03-02T08:27:33;7.70;99.90
18317;DHT22;9284;52.298;21.164;2024-03-02T08:30:03;7.80;99.90
18317;DHT22;9284;52.298;21.164;2024-03-02T08:32:34;7.80;47.50
18317;DHT22;9284;52.298;21.164;2024-03-02T08:35:03;7.80;35.10
18317;DHT22;9284;52.298;21.164;2024-03-02T08:37:33;7.90;1.00
18317;DHT22;9284;52.298;21.164;2024-03-02T08:40:02;7.90;1.00
18317;DHT22;9284;52.298;21.164;2024-03-02T08:42:34;7.90;1.00
18317;DHT22;9284;52.298;21.164;2024-03-02T08:45:03;8.00;1.00
18317;DHT22;9284;52.298;21.164;2024-03-02T08:47:31;8.10;1.00
18317;DHT22;9284;52.298;21.164;2024-03-02T08:50:00;8.20;1.00
18317;DHT22;9284;52.298;21.164;2024-03-02T08:52:28;8.30;99.90
18317;DHT22;9284;52.298;21.164;2024-03-02T08:54:58;8.40;99.90
18317;DHT22;9284;52.298;21.164;2024-03-02T08:57:27;8.40;1.00
18317;DHT22;9284;52.298;21.164;2024-03-02T08:59:55;8.40;1.00
18317;DHT22;9284;52.298;21.164;2024-03-02T09:02:24;8.40;1.00
18317;DHT22;9284;52.298;21.164;2024-03-02T09:04:52;8.50;1.00
18317;DHT22;9284;52.298;21.164;2024-03-02T09:07:21;8.50;1.00
18317;DHT22;9284;52.298;21.164;2024-03-02T09:09:49;8.60;1.00
18317;DHT22;9284;52.298;21.164;2024-03-02T09:12:19;8.50;99.90
18317;DHT22;9284;52.298;21.164;2024-03-02T09:14:48;8.50;1.00
18317;DHT22;9284;52.298;21.164;2024-03-02T09:17:17;8.60;1.00
18317;DHT22;9284;52.298;21.164;2024-03-02T09:19:45;8.50;1.00
18317;DHT22;9284;52.298;21.164;2024-03-02T09:22:14;8.50;1.00
18317;DHT22;9284;52.298;21.164;2024-03-02T09:24:43;8.50;1.00
18317;DHT22;9284;52.298;21.164;2024-03-02T09:27:11;8.50;1.00
18317;DHT22;9284;52.298;21.164;2024-03-02T09:29:41;8.60;1.00
18317;DHT22;9284;52.298;21.164;2024-03-02T09:32:13;8.60;1.00
18317;DHT22;9284;52.298;21.164;2024-03-02T09:34:41;8.70;1.00
18317;DHT22;9284;52.298;21.164;2024-03-02T09:37:10;8.80;99.90
18317;DHT22;9284;52.298;21.164;2024-03-02T09:39:38;8.90;99.90
18317;DHT22;9284;52.298;21.164;2024-03-02T09:42:07;8.90;99.90
18317;DHT22;9284;52.298;21.164;2024-03-02T09:44:35;9.00;99.90
18317;DHT22;9284;52.298;21.164;2024-03-02T09:47:07;9.10;1.00
18317;DHT22;9284;52.298;21.164;2024-03-02T09:49:35;9.00;1.00
18317;DHT22;9284;52.298;21.164;2024-03-02T09:52:07;9.10;1.00
18317;DHT22;9284;52.298;21.164;2024-03-02T09:54:36;9.00;1.00
18317;DHT22;9284;52.298;21.164;2024-03-02T09:57:05;9.10;1.00
18317;DHT22;9284;52.298;21.164;2024-03-02T09:59:33;9.10;1.00
18317;DHT22;9284;52.298;21.164;2024-03-02T10:02:02;9.10;1.00
18317;DHT22;9284;52.298;21.164;2024-03-02T10:04:36;9.10;1.00
18317;DHT22;9284;52.298;21.164;2024-03-02T10:07:12;9.30;1.00
18317;DHT22;9284;52.298;21.164;2024-03-02T10:09:41;9.40;1.00
18317;DHT22;9284;52.298;21.164;2024-03-02T10:12:11;9.50;1.00
18317;DHT22;9284;52.298;21.164;2024-03-02T10:14:40;9.50;1.00
18317;DHT22;9284;52.298;21.164;2024-03-02T10:17:10;9.70;99.90
18317;DHT22;9284;52.298;21.164;2024-03-02T10:19:40;9.70;99.90
18317;DHT22;9284;52.298;21.164;2024-03-02T10:22:09;9.80;99.90
18317;DHT22;9284;52.298;21.164;2024-03-02T10:24:40;9.80;99.90
18317;DHT22;9284;52.298;21.164;2024-03-02T10:27:10;10.00;99.90
18317;DHT22;9284;52.298;21.164;2024-03-02T10:29:45;10.00;88.20
18317;DHT22;9284;52.298;21.164;2024-03-02T10:32:14;10.10;35.60
18317;DHT22;9284;52.298;21.164;2024-03-02T10:34:46;10.00;7.90
18317;DHT22;9284;52.298;21.164;2024-03-02T10:37:15;10.10;37.20
18317;DHT22;9284;52.298;21.164;2024-03-02T10:39:46;10.20;90.60
18317;DHT22;9284;52.298;21.164;2024-03-02T10:42:16;10.20;1.00
18317;DHT22;9284;52.298;21.164;2024-03-02T10:44:46;10.30;1.00
18317;DHT22;9284;52.298;21.164;2024-03-02T10:47:15;10.40;1.00
18317;DHT22;9284;52.298;21.164;2024-03-02T10:49:48;10.50;1.00
18317;DHT22;9284;52.298;21.164;2024-03-02T10:52:17;10.60;1.00
18317;DHT22;9284;52.298;21.164;2024-03-02T10:54:45;10.60;1.00
18317;DHT22;9284;52.298;21.164;2024-03-02T10:57:17;10.70;1.00
18317;DHT22;9284;52.298;21.164;2024-03-02T10:59:52;10.60;1.00
18317;DHT22;9284;52.298;21.164;2024-03-02T11:02:22;10.70;1.00
18317;DHT22;9284;52.298;21.164;2024-03-02T11:04:55;10.70;1.00
18317;DHT22;9284;52.298;21.164;2024-03-02T11:07:25;10.70;1.00
18317;DHT22;9284;52.298;21.164;2024-03-02T11:09:57;10.80;1.00
18317;DHT22;9284;52.298;21.164;2024-03-02T11:12:29;10.80;1.00
18317;DHT22;9284;52.298;21.164;2024-03-02T11:15:04;10.80;1.00
18317;DHT22;9284;52.298;21.164;2024-03-02T11:17:34;10.90;1.00
18317;DHT22;9284;52.298;21.164;2024-03-02T11:20:06;11.10;1.00
18317;DHT22;9284;52.298;21.164;2024-03-02T11:22:36;11.00;1.00
18317;DHT22;9284;52.298;21.164;2024-03-02T11:25:06;11.00;1.00
18317;DHT22;9284;52.298;21.164;2024-03-02T11:28:01;11.00;1.00
18317;DHT22;9284;52.298;21.164;2024-03-02T11:30:48;11.10;1.00
18317;DHT22;9284;52.298;21.164;2024-03-02T11:33:23;11.20;1.00
18317;DHT22;9284;52.298;21.164;2024-03-02T11:35:57;11.20;1.00
18317;DHT22;9284;52.298;21.164;2024-03-02T11:38:30;11.20;1.00
18317;DHT22;9284;52.298;21.164;2024-03-02T11:41:01;11.30;1.00
18317;DHT22;9284;52.298;21.164;2024-03-02T11:43:31;11.40;1.00
18317;DHT22;9284;52.298;21.164;2024-03-02T11:46:00;11.50;1.00
18317;DHT22;9284;52.298;21.164;2024-03-02T11:48:35;11.40;1.00
18317;DHT22;9284;52.298;21.164;2024-03-02T11:51:06;11.40;1.00
18317;DHT22;9284;52.298;21.164;2024-03-02T11:53:35;11.50;1.00
18317;DHT22;9284;52.298;21.164;2024-03-02T11:56:07;11.40;1.00
18317;DHT22;9284;52.298;21.164;2024-03-02T11:58:39;11.30;1.00
18317;DHT22;9284;52.298;21.164;2024-03-02T12:01:10;11.30;1.00
18317;DHT22;9284;52.298;21.164;2024-03-02T12:03:42;11.40;1.00
18317;DHT22;9284;52.298;21.164;2024-03-02T12:06:12;11.40;1.00
18317;DHT22;9284;52.298;21.164;2024-03-02T12:08:41;11.30;1.00
18317;DHT22;9284;52.298;21.164;2024-03-02T12:11:13;11.40;1.00
18317;DHT22;9284;52.298;21.164;2024-03-02T12:13:52;11.40;1.00
18317;DHT22;9284;52.298;21.164;2024-03-02T12:16:25;11.30;1.00
18317;DHT22;9284;52.298;21.164;2024-03-02T12:18:54;11.30;1.00
18317;DHT22;9284;52.298;21.164;2024-03-02T12:21:26;11.20;1.00
18317;DHT22;9284;52.298;21.164;2024-03-02T12:23:54;11.20;1.00
18317;DHT22;9284;52.298;21.164;2024-03-02T12:26:23;11.20;1.00
18317;DHT22;9284;52.298;21.164;2024-03-02T12:28:52;11.20;1.00
18317;DHT22;9284;52.298;21.164;2024-03-02T12:31:21;11.20;1.00
18317;DHT22;9284;52.298;21.164;2024-03-02T12:33:49;11.20;1.00
18317;DHT22;9284;52.298;21.164;2024-03-02T12:36:18;11.30;1.00
18317;DHT22;9284;52.298;21.164;2024-03-02T12:38:48;11.50;1.00
18317;DHT22;9284;52.298;21.164;2024-03-02T12:41:21;11.50;1.00
18317;DHT22;9284;52.298;21.164;2024-03-02T12:43:51;11.50;1.00
18317;DHT22;9284;52.298;21.164;2024-03-02T12:46:20;11.60;1.00
18317;DHT22;9284;52.298;21.164;2024-03-02T12:48:49;11.60;1.00
18317;DHT22;9284;52.298;21.164;2024-03-02T12:51:17;11.60;1.00
18317;DHT22;9284;52.298;21.164;2024-03-02T12:53:53;11.50;1.00
18317;DHT22;9284;52.298;21.164;2024-03-02T12:56:22;11.50;1.00
18317;DHT22;9284;52.298;21.164;2024-03-02T12:58:53;11.40;1.00
18317;DHT22;9284;52.298;21.164;2024-03-02T13:01:22;11.40;1.00
18317;DHT22;9284;52.298;21.164;2024-03-02T13:03:53;11.30;1.00
18317;DHT22;9284;52.298;21.164;2024-03-02T13:06:23;11.20;1.00
18317;DHT22;9284;52.298;21.164;2024-03-02T13:08:51;11.20;1.00
18317;DHT22;9284;52.298;21.164;2024-03-02T13:11:22;11.10;1.00
18317;DHT22;9284;52.298;21.164;2024-03-02T13:13:51;11.20;1.00
18317;DHT22;9284;52.298;21.164;2024-03-02T13:16:20;11.00;1.00
18317;DHT22;9284;52.298;21.164;2024-03-02T13:18:58;11.00;1.00
18317;DHT22;9284;52.298;21.164;2024-03-02T13:21:26;11.00;1.00
18317;DHT22;9284;52.298;21.164;2024-03-02T13:23:55;10.90;1.00
18317;DHT22;9284;52.298;21.164;2024-03-02T13:26:25;10.90;1.00
18317;DHT22;9284;52.298;21.164;2024-03-02T13:28:53;10.90;1.00
18317;DHT22;9284;52.298;21.164;2024-03-02T13:31:21;10.90;1.00
18317;DHT22;9284;52.298;21.164;2024-03-02T13:33:50;10.80;1.00
18317;DHT22;9284;52.298;21.164;2024-03-02T13:36:18;10.80;1.00
18317;DHT22;9284;52.298;21.164;2024-03-02T13:38:47;10.80;1.00
18317;DHT22;9284;52.298;21.164;2024-03-02T13:41:15;10.70;1.00
18317;DHT22;9284;52.298;21.164;2024-03-02T13:43:45;10.60;1.00
18317;DHT22;9284;52.298;21.164;2024-03-02T13:46:15;10.60;1.00
18317;DHT22;9284;52.298;21.164;2024-03-02T13:48:44;10.60;1.00
18317;DHT22;9284;52.298;21.164;2024-03-02T13:51:12;10.50;1.00
18317;DHT22;9284;52.298;21.164;2024-03-02T13:53:41;10.50;1.00
18317;DHT22;9284;52.298;21.164;2024-03-02T13:56:09;10.40;1.00
18317;DHT22;9284;52.298;21.164;2024-03-02T13:58:37;10.50;1.00
18317;DHT22;9284;52.298;21.164;2024-03-02T14:01:07;10.50;1.00
18317;DHT22;9284;52.298;21.164;2024-03-02T14:03:36;10.30;1.00
18317;DHT22;9284;52.298;21.164;2024-03-02T14:06:04;10.30;1.00
18317;DHT22;9284;52.298;21.164;2024-03-02T14:08:33;10.30;1.00
18317;DHT22;9284;52.298;21.164;2024-03-02T14:11:03;10.20;1.00
18317;DHT22;9284;52.298;21.164;2024-03-02T14:13:31;10.20;1.00
18317;DHT22;9284;52.298;21.164;2024-03-02T14:16:00;10.10;1.00
18317;DHT22;9284;52.298;21.164;2024-03-02T14:18:30;10.10;1.00
18317;DHT22;9284;52.298;21.164;2024-03-02T14:20:58;10.10;1.00
18317;DHT22;9284;52.298;21.164;2024-03-02T14:23:27;10.00;1.00
18317;DHT22;9284;52.298;21.164;2024-03-02T14:25:56;10.10;1.00
18317;DHT22;9284;52.298;21.164;2024-03-02T14:28:26;10.00;6.10
18317;DHT22;9284;52.298;21.164;2024-03-02T14:31:14;10.00;34.70
18317;DHT22;9284;52.298;21.164;2024-03-02T14:33:44;10.00;99.90
18317;DHT22;9284;52.298;21.164;2024-03-02T14:36:13;10.00;99.90
18317;DHT22;9284;52.298;21.164;2024-03-02T14:38:41;10.00;99.90
18317;DHT22;9284;52.298;21.164;2024-03-02T14:41:10;9.90;99.90
18317;DHT22;9284;52.298;21.164;2024-03-02T14:43:38;9.90;92.30
18317;DHT22;9284;52.298;21.164;2024-03-02T14:46:08;9.80;36.10
18317;DHT22;9284;52.298;21.164;2024-03-02T14:48:37;9.70;99.90
18317;DHT22;9284;52.298;21.164;2024-03-02T14:51:07;9.70;99.90
18317;DHT22;9284;52.298;21.164;2024-03-02T14:53:37;9.60;99.90
18317;DHT22;9284;52.298;21.164;2024-03-02T14:56:06;9.60;99.90
18317;DHT22;9284;52.298;21.164;2024-03-02T14:58:34;9.50;99.90
18317;DHT22;9284;52.298;21.164;2024-03-02T15:01:04;9.50;99.90
18317;DHT22;9284;52.298;21.164;2024-03-02T15:03:33;9.50;99.90
18317;DHT22;9284;52.298;21.164;2024-03-02T15:06:02;9.50;99.90
18317;DHT22;9284;52.298;21.164;2024-03-02T15:08:32;9.50;99.90
18317;DHT22;9284;52.298;21.164;2024-03-02T15:11:01;9.50;99.90
18317;DHT22;9284;52.298;21.164;2024-03-02T15:13:31;9.40;1.00
18317;DHT22;9284;52.298;21.164;2024-03-02T15:16:00;9.40;1.00
18317;DHT22;9284;52.298;21.164;2024-03-02T15:18:29;9.30;1.00
18317;DHT22;9284;52.298;21.164;2024-03-02T15:20:57;9.30;1.00
18317;DHT22;9284;52.298;21.164;2024-03-02T15:23:26;9.30;1.00
18317;DHT22;9284;52.298;21.164;2024-03-02T15:25:58;9.20;1.00
18317;DHT22;9284;52.298;21.164;2024-03-02T15:28:27;9.20;1.00
18317;DHT22;9284;52.298;21.164;2024-03-02T15:30:55;9.20;1.00
18317;DHT22;9284;52.298;21.164;2024-03-02T15:33:23;9.10;1.00
18317;DHT22;9284;52.298;21.164;2024-03-02T15:35:58;9.10;1.00
18317;DHT22;9284;52.298;21.164;2024-03-02T15:38:28;9.10;1.00
18317;DHT22;9284;52.298;21.164;2024-03-02T15:41:03;9.00;1.00
18317;DHT22;9284;52.298;21.164;2024-03-02T15:43:32;9.00;1.00
18317;DHT22;9284;52.298;21.164;2024-03-02T15:46:04;8.90;99.90
18317;DHT22;9284;52.298;21.164;2024-03-02T15:48:32;8.90;99.90
18317;DHT22;9284;52.298;21.164;2024-03-02T15:51:01;8.90;99.90
18317;DHT22;9284;52.298;21.164;2024-03-02T15:53:33;8.80;99.90
18317;DHT22;9284;52.298;21.164;2024-03-02T15:56:03;8.80;99.90
18317;DHT22;9284;52.298;21.164;2024-03-02T15:58:35;8.80;99.90
18317;DHT22;9284;52.298;21.164;2024-03-02T16:01:05;8.80;99.90
18317;DHT22;9284;52.298;21.164;2024-03-02T16:03:34;8.70;99.90
18317;DHT22;9284;52.298;21.164;2024-03-02T16:06:03;8.70;99.90
18317;DHT22;9284;52.298;21.164;2024-03-02T16:08:31;8.70;99.90